sensor_id;sensor_type;location;lat;lon;timestamp;temperature;humidity
70107;DHT22;57473;37.508;15.080;2023-02-13T00:00:52;10.30;87.50
70107;DHT22;57473;37.508;15.080;2023-02-13T00:03:20;10.20;87.30
70107;DHT22;57473;37.508;15.080;2023-02-13T00:05:47;10.30;87.40
70107;DHT22;57473;37.508;15.080;2023-02-13T00:08:15;10.30;87.50
70107;DHT22;57473;37.508;15.080;2023-02-13T00:10:42;10.30;87.60
70107;DHT22;57473;37.508;15.080;2023-02-13T00:13:09;10.30;87.50
70107;DHT22;57473;37.508;15.080;2023-02-13T00:15:36;10.20;86.90
70107;DHT22;57473;37.508;15.080;2023-02-13T00:18:04;10.20;87.10
70107;DHT22;57473;37.508;15.080;2023-02-13T00:20:31;10.20;87.40
70107;DHT22;57473;37.508;15.080;2023-02-13T00:22:59;10.10;87.70
70107;DHT22;57473;37.508;15.080;2023-02-13T00:25:26;10.10;88.30
70107;DHT22;57473;37.508;15.080;2023-02-13T00:27:54;10.10;89.30
70107;DHT22;57473;37.508;15.080;2023-02-13T00:30:21;10.10;89.60
70107;DHT22;57473;37.508;15.080;2023-02-13T00:32:50;10.00;89.80
70107;DHT22;57473;37.508;15.080;2023-02-13T00:35:17;9.90;90.10
70107;DHT22;57473;37.508;15.080;2023-02-13T00:37:45;9.90;90.50
70107;DHT22;57473;37.508;15.080;2023-02-13T00:40:12;9.80;91.00
70107;DHT22;57473;37.508;15.080;2023-02-13T00:42:40;9.80;91.60
70107;DHT22;57473;37.508;15.080;2023-02-13T00:45:08;9.70;91.80
70107;DHT22;57473;37.508;15.080;2023-02-13T00:47:35;9.70;93.40
70107;DHT22;57473;37.508;15.080;2023-02-13T00:50:03;9.70;93.80
70107;DHT22;57473;37.508;15.080;2023-02-13T00:52:30;9.70;93.70
70107;DHT22;57473;37.508;15.080;2023-02-13T00:54:58;9.60;94.40
70107;DHT22;57473;37.508;15.080;2023-02-13T00:57:25;9.60;94.40
70107;DHT22;57473;37.508;15.080;2023-02-13T00:59:52;9.60;94.20
70107;DHT22;57473;37.508;15.080;2023-02-13T01:02:20;9.70;93.00
70107;DHT22;57473;37.508;15.080;2023-02-13T01:04:47;9.80;92.60
70107;DHT22;57473;37.508;15.080;2023-02-13T01:07:14;9.80;92.40
70107;DHT22;57473;37.508;15.080;2023-02-13T01:09:43;9.90;92.20
70107;DHT22;57473;37.508;15.080;2023-02-13T01:12:10;10.10;92.50
70107;DHT22;57473;37.508;15.080;2023-02-13T01:14:38;10.30;91.00
70107;DHT22;57473;37.508;15.080;2023-02-13T01:17:05;10.40;90.20
70107;DHT22;57473;37.508;15.080;2023-02-13T01:19:32;10.40;89.50
70107;DHT22;57473;37.508;15.080;2023-02-13T01:22:00;10.40;89.40
70107;DHT22;57473;37.508;15.080;2023-02-13T01:24:27;10.40;89.20
70107;DHT22;57473;37.508;15.080;2023-02-13T01:26:59;10.40;87.80
70107;DHT22;57473;37.508;15.080;2023-02-13T01:29:28;10.40;87.30
70107;DHT22;57473;37.508;15.080;2023-02-13T01:31:56;10.40;86.80
70107;DHT22;57473;37.508;15.080;2023-02-13T01:34:27;10.40;87.00
70107;DHT22;57473;37.508;15.080;2023-02-13T01:36:54;10.40;87.50
70107;DHT22;57473;37.508;15.080;2023-02-13T01:39:24;10.30;87.90
70107;DHT22;57473;37.508;15.080;2023-02-13T01:41:51;10.30;88.20
70107;DHT22;57473;37.508;15.080;2023-02-13T01:47:19;10.30;88.10
70107;DHT22;57473;37.508;15.080;2023-02-13T01:49:50;10.30;88.40
70107;DHT22;57473;37.508;15.080;2023-02-13T01:52:20;10.30;88.50
70107;DHT22;57473;37.508;15.080;2023-02-13T01:54:48;10.20;88.80
70107;DHT22;57473;37.508;15.080;2023-02-13T01:57:18;10.20;89.00
70107;DHT22;57473;37.508;15.080;2023-02-13T01:59:57;10.20;89.30
70107;DHT22;57473;37.508;15.080;2023-02-13T02:02:28;10.20;89.70
70107;DHT22;57473;37.508;15.080;2023-02-13T02:05:00;10.10;90.00
70107;DHT22;57473;37.508;15.080;2023-02-13T02:07:30;10.10;90.10
70107;DHT22;57473;37.508;15.080;2023-02-13T02:10:06;10.10;90.30
70107;DHT22;57473;37.508;15.080;2023-02-13T02:12:40;10.10;90.30
70107;DHT22;57473;37.508;15.080;2023-02-13T02:15:09;10.10;90.30
70107;DHT22;57473;37.508;15.080;2023-02-13T02:17:37;10.10;90.70
70107;DHT22;57473;37.508;15.080;2023-02-13T02:20:19;10.10;90.90
70107;DHT22;57473;37.508;15.080;2023-02-13T02:39:39;10.00;90.90
70107;DHT22;57473;37.508;15.080;2023-02-13T02:45:00;10.10;89.50
70107;DHT22;57473;37.508;15.080;2023-02-13T02:47:55;10.20;89.20
70107;DHT22;57473;37.508;15.080;2023-02-13T02:56:26;10.10;88.70
70107;DHT22;57473;37.508;15.080;2023-02-13T02:59:06;10.10;88.80
70107;DHT22;57473;37.508;15.080;2023-02-13T03:01:58;10.10;89.50
70107;DHT22;57473;37.508;15.080;2023-02-13T03:04:51;10.10;89.20
70107;DHT22;57473;37.508;15.080;2023-02-13T03:07:38;10.10;89.20
70107;DHT22;57473;37.508;15.080;2023-02-13T03:10:28;10.10;88.40
70107;DHT22;57473;37.508;15.080;2023-02-13T03:13:43;10.10;88.70
70107;DHT22;57473;37.508;15.080;2023-02-13T03:16:17;10.10;88.60
70107;DHT22;57473;37.508;15.080;2023-02-13T03:19:52;10.10;88.30
70107;DHT22;57473;37.508;15.080;2023-02-13T03:23:13;10.10;88.30
70107;DHT22;57473;37.508;15.080;2023-02-13T03:26:00;10.10;87.10
70107;DHT22;57473;37.508;15.080;2023-02-13T03:31:31;10.10;80.60
70107;DHT22;57473;37.508;15.080;2023-02-13T03:34:06;10.10;79.50
70107;DHT22;57473;37.508;15.080;2023-02-13T03:36:49;10.10;78.60
70107;DHT22;57473;37.508;15.080;2023-02-13T03:40:08;10.10;78.10
70107;DHT22;57473;37.508;15.080;2023-02-13T03:42:51;10.10;75.60
70107;DHT22;57473;37.508;15.080;2023-02-13T03:45:30;10.20;73.00
70107;DHT22;57473;37.508;15.080;2023-02-13T03:48:20;10.30;70.90
70107;DHT22;57473;37.508;15.080;2023-02-13T03:51:09;10.30;70.90
70107;DHT22;57473;37.508;15.080;2023-02-13T03:53:41;10.30;69.50
70107;DHT22;57473;37.508;15.080;2023-02-13T03:56:11;10.40;67.40
70107;DHT22;57473;37.508;15.080;2023-02-13T03:58:58;10.40;67.00
70107;DHT22;57473;37.508;15.080;2023-02-13T04:01:47;10.40;66.20
70107;DHT22;57473;37.508;15.080;2023-02-13T04:04:32;10.50;65.90
70107;DHT22;57473;37.508;15.080;2023-02-13T04:07:13;10.50;65.90
70107;DHT22;57473;37.508;15.080;2023-02-13T04:10:09;10.50;66.90
70107;DHT22;57473;37.508;15.080;2023-02-13T04:12:47;10.40;68.00
70107;DHT22;57473;37.508;15.080;2023-02-13T04:15:26;10.40;68.40
70107;DHT22;57473;37.508;15.080;2023-02-13T04:18:15;10.40;68.50
70107;DHT22;57473;37.508;15.080;2023-02-13T04:20:44;10.30;70.00
70107;DHT22;57473;37.508;15.080;2023-02-13T04:23:12;10.30;71.50
70107;DHT22;57473;37.508;15.080;2023-02-13T04:25:42;10.30;70.30
70107;DHT22;57473;37.508;15.080;2023-02-13T04:28:10;10.30;70.60
70107;DHT22;57473;37.508;15.080;2023-02-13T04:30:37;10.30;71.60
70107;DHT22;57473;37.508;15.080;2023-02-13T04:33:05;10.20;73.50
70107;DHT22;57473;37.508;15.080;2023-02-13T04:35:32;10.10;76.30
70107;DHT22;57473;37.508;15.080;2023-02-13T04:38:01;9.90;77.70
70107;DHT22;57473;37.508;15.080;2023-02-13T04:40:28;9.70;76.50
70107;DHT22;57473;37.508;15.080;2023-02-13T04:42:56;9.60;80.40
70107;DHT22;57473;37.508;15.080;2023-02-13T04:45:23;9.40;82.20
70107;DHT22;57473;37.508;15.080;2023-02-13T04:47:55;9.20;80.10
70107;DHT22;57473;37.508;15.080;2023-02-13T04:50:23;9.10;80.90
70107;DHT22;57473;37.508;15.080;2023-02-13T04:52:55;8.90;82.50
70107;DHT22;57473;37.508;15.080;2023-02-13T04:55:27;8.90;83.40
70107;DHT22;57473;37.508;15.080;2023-02-13T04:57:55;8.90;89.40
70107;DHT22;57473;37.508;15.080;2023-02-13T05:00:24;8.80;90.10
70107;DHT22;57473;37.508;15.080;2023-02-13T05:02:52;8.70;90.70
70107;DHT22;57473;37.508;15.080;2023-02-13T05:05:20;8.70;90.90
70107;DHT22;57473;37.508;15.080;2023-02-13T05:07:47;8.70;91.60
70107;DHT22;57473;37.508;15.080;2023-02-13T05:10:15;8.70;91.60
70107;DHT22;57473;37.508;15.080;2023-02-13T05:12:42;8.70;95.00
70107;DHT22;57473;37.508;15.080;2023-02-13T05:15:10;8.70;95.10
70107;DHT22;57473;37.508;15.080;2023-02-13T05:17:37;8.70;94.60
70107;DHT22;57473;37.508;15.080;2023-02-13T05:20:05;8.70;92.70
70107;DHT22;57473;37.508;15.080;2023-02-13T05:22:33;8.60;94.70
70107;DHT22;57473;37.508;15.080;2023-02-13T05:25:18;8.60;98.10
70107;DHT22;57473;37.508;15.080;2023-02-13T05:27:46;8.60;99.30
70107;DHT22;57473;37.508;15.080;2023-02-13T05:30:13;8.60;99.50
70107;DHT22;57473;37.508;15.080;2023-02-13T05:32:41;8.60;99.60
70107;DHT22;57473;37.508;15.080;2023-02-13T05:35:09;8.50;99.90
70107;DHT22;57473;37.508;15.080;2023-02-13T05:37:36;8.60;99.90
70107;DHT22;57473;37.508;15.080;2023-02-13T05:40:04;8.60;99.90
70107;DHT22;57473;37.508;15.080;2023-02-13T05:42:31;8.60;99.90
70107;DHT22;57473;37.508;15.080;2023-02-13T05:44:59;8.60;99.90
70107;DHT22;57473;37.508;15.080;2023-02-13T05:47:26;8.70;99.90
70107;DHT22;57473;37.508;15.080;2023-02-13T05:49:53;8.70;99.90
70107;DHT22;57473;37.508;15.080;2023-02-13T05:52:21;8.70;99.90
70107;DHT22;57473;37.508;15.080;2023-02-13T05:54:48;8.70;98.80
70107;DHT22;57473;37.508;15.080;2023-02-13T05:57:16;8.80;98.50
70107;DHT22;57473;37.508;15.080;2023-02-13T05:59:43;8.80;98.60
70107;DHT22;57473;37.508;15.080;2023-02-13T06:02:10;8.90;99.80
70107;DHT22;57473;37.508;15.080;2023-02-13T06:04:38;8.90;99.90
70107;DHT22;57473;37.508;15.080;2023-02-13T06:07:05;9.00;99.90
70107;DHT22;57473;37.508;15.080;2023-02-13T06:09:33;9.00;99.90
70107;DHT22;57473;37.508;15.080;2023-02-13T06:12:00;9.00;99.90
70107;DHT22;57473;37.508;15.080;2023-02-13T06:14:27;9.00;99.90
70107;DHT22;57473;37.508;15.080;2023-02-13T06:16:54;9.00;99.90
70107;DHT22;57473;37.508;15.080;2023-02-13T06:19:22;9.00;99.90
70107;DHT22;57473;37.508;15.080;2023-02-13T06:21:49;9.00;99.90
70107;DHT22;57473;37.508;15.080;2023-02-13T06:24:17;9.00;99.90
70107;DHT22;57473;37.508;15.080;2023-02-13T06:26:44;9.10;99.90
70107;DHT22;57473;37.508;15.080;2023-02-13T06:29:11;9.10;99.90
70107;DHT22;57473;37.508;15.080;2023-02-13T06:31:39;9.20;99.90
70107;DHT22;57473;37.508;15.080;2023-02-13T06:34:06;9.20;99.90
70107;DHT22;57473;37.508;15.080;2023-02-13T06:36:34;9.20;99.90
70107;DHT22;57473;37.508;15.080;2023-02-13T06:39:03;9.30;99.90
70107;DHT22;57473;37.508;15.080;2023-02-13T06:41:31;9.30;99.90
70107;DHT22;57473;37.508;15.080;2023-02-13T06:43:58;9.30;99.90
70107;DHT22;57473;37.508;15.080;2023-02-13T06:46:25;9.40;99.90
70107;DHT22;57473;37.508;15.080;2023-02-13T06:48:53;9.40;98.90
70107;DHT22;57473;37.508;15.080;2023-02-13T06:51:20;9.50;99.60
70107;DHT22;57473;37.508;15.080;2023-02-13T06:53:50;9.60;99.60
70107;DHT22;57473;37.508;15.080;2023-02-13T06:56:18;9.60;97.80
70107;DHT22;57473;37.508;15.080;2023-02-13T06:58:45;9.70;97.90
70107;DHT22;57473;37.508;15.080;2023-02-13T07:01:12;9.70;97.60
70107;DHT22;57473;37.508;15.080;2023-02-13T07:03:40;9.80;96.70
70107;DHT22;57473;37.508;15.080;2023-02-13T07:06:07;9.80;97.70
70107;DHT22;57473;37.508;15.080;2023-02-13T07:08:34;9.90;98.20
70107;DHT22;57473;37.508;15.080;2023-02-13T07:11:02;10.00;98.00
70107;DHT22;57473;37.508;15.080;2023-02-13T07:13:29;10.00;96.60
70107;DHT22;57473;37.508;15.080;2023-02-13T07:15:59;10.00;98.30
70107;DHT22;57473;37.508;15.080;2023-02-13T07:18:27;9.90;99.90
70107;DHT22;57473;37.508;15.080;2023-02-13T07:20:54;9.70;99.90
70107;DHT22;57473;37.508;15.080;2023-02-13T07:23:24;9.60;99.90
70107;DHT22;57473;37.508;15.080;2023-02-13T07:25:51;9.60;99.90
70107;DHT22;57473;37.508;15.080;2023-02-13T07:28:18;9.50;99.90
70107;DHT22;57473;37.508;15.080;2023-02-13T07:30:46;9.50;99.90
70107;DHT22;57473;37.508;15.080;2023-02-13T07:33:13;9.50;99.90
70107;DHT22;57473;37.508;15.080;2023-02-13T07:35:45;9.60;99.90
70107;DHT22;57473;37.508;15.080;2023-02-13T07:38:14;9.70;99.90
70107;DHT22;57473;37.508;15.080;2023-02-13T07:40:42;9.90;99.90
70107;DHT22;57473;37.508;15.080;2023-02-13T07:43:10;10.00;99.90
70107;DHT22;57473;37.508;15.080;2023-02-13T07:45:38;10.20;99.90
70107;DHT22;57473;37.508;15.080;2023-02-13T07:48:06;10.40;97.60
70107;DHT22;57473;37.508;15.080;2023-02-13T07:50:33;10.50;94.30
70107;DHT22;57473;37.508;15.080;2023-02-13T07:53:01;10.60;93.40
70107;DHT22;57473;37.508;15.080;2023-02-13T07:55:29;10.70;90.80
70107;DHT22;57473;37.508;15.080;2023-02-13T07:57:59;10.80;89.60
70107;DHT22;57473;37.508;15.080;2023-02-13T08:00:26;11.00;89.20
70107;DHT22;57473;37.508;15.080;2023-02-13T08:02:54;11.20;86.60
70107;DHT22;57473;37.508;15.080;2023-02-13T08:05:21;11.50;84.90
70107;DHT22;57473;37.508;15.080;2023-02-13T08:07:48;11.60;84.10
70107;DHT22;57473;37.508;15.080;2023-02-13T08:10:16;11.60;84.30
70107;DHT22;57473;37.508;15.080;2023-02-13T08:13:02;11.60;84.00
70107;DHT22;57473;37.508;15.080;2023-02-13T08:15:30;11.70;83.60
70107;DHT22;57473;37.508;15.080;2023-02-13T08:17:58;11.60;83.70
70107;DHT22;57473;37.508;15.080;2023-02-13T08:20:25;11.60;83.60
70107;DHT22;57473;37.508;15.080;2023-02-13T08:22:53;11.70;83.30
70107;DHT22;57473;37.508;15.080;2023-02-13T08:25:20;11.60;82.90
70107;DHT22;57473;37.508;15.080;2023-02-13T08:27:47;11.60;84.00
70107;DHT22;57473;37.508;15.080;2023-02-13T08:30:15;11.60;83.60
70107;DHT22;57473;37.508;15.080;2023-02-13T08:32:43;11.70;84.00
70107;DHT22;57473;37.508;15.080;2023-02-13T08:35:21;11.70;84.30
70107;DHT22;57473;37.508;15.080;2023-02-13T08:37:50;11.70;82.80
70107;DHT22;57473;37.508;15.080;2023-02-13T08:40:17;11.50;82.80
70107;DHT22;57473;37.508;15.080;2023-02-13T08:42:45;11.60;84.60
70107;DHT22;57473;37.508;15.080;2023-02-13T08:45:12;11.60;84.80
70107;DHT22;57473;37.508;15.080;2023-02-13T08:47:40;11.70;84.40
70107;DHT22;57473;37.508;15.080;2023-02-13T08:50:07;11.70;83.00
70107;DHT22;57473;37.508;15.080;2023-02-13T08:52:35;11.70;82.80
70107;DHT22;57473;37.508;15.080;2023-02-13T08:55:02;11.60;83.70
70107;DHT22;57473;37.508;15.080;2023-02-13T08:57:31;11.70;83.10
70107;DHT22;57473;37.508;15.080;2023-02-13T08:59:58;11.90;82.30
70107;DHT22;57473;37.508;15.080;2023-02-13T09:02:25;11.90;80.60
70107;DHT22;57473;37.508;15.080;2023-02-13T09:04:53;12.00;79.70
70107;DHT22;57473;37.508;15.080;2023-02-13T09:07:21;12.20;79.80
70107;DHT22;57473;37.508;15.080;2023-02-13T09:09:48;12.40;78.80
70107;DHT22;57473;37.508;15.080;2023-02-13T09:12:15;12.60;77.60
70107;DHT22;57473;37.508;15.080;2023-02-13T09:14:43;12.70;77.80
70107;DHT22;57473;37.508;15.080;2023-02-13T09:17:10;12.90;75.70
70107;DHT22;57473;37.508;15.080;2023-02-13T09:19:37;12.70;75.30
70107;DHT22;57473;37.508;15.080;2023-02-13T09:22:05;12.80;75.70
70107;DHT22;57473;37.508;15.080;2023-02-13T09:24:32;12.90;74.70
70107;DHT22;57473;37.508;15.080;2023-02-13T09:26:59;13.00;73.20
70107;DHT22;57473;37.508;15.080;2023-02-13T09:29:27;13.10;73.50
70107;DHT22;57473;37.508;15.080;2023-02-13T09:31:57;13.30;73.50
70107;DHT22;57473;37.508;15.080;2023-02-13T09:34:25;13.40;71.70
70107;DHT22;57473;37.508;15.080;2023-02-13T09:36:53;13.50;71.70
70107;DHT22;57473;37.508;15.080;2023-02-13T09:39:21;13.70;70.50
70107;DHT22;57473;37.508;15.080;2023-02-13T09:41:50;13.70;69.90
70107;DHT22;57473;37.508;15.080;2023-02-13T09:44:30;13.70;70.60
70107;DHT22;57473;37.508;15.080;2023-02-13T09:49:50;13.60;68.50
70107;DHT22;57473;37.508;15.080;2023-02-13T09:52:19;13.40;70.00
70107;DHT22;57473;37.508;15.080;2023-02-13T09:54:46;13.60;68.60
70107;DHT22;57473;37.508;15.080;2023-02-13T09:57:19;13.70;67.00
70107;DHT22;57473;37.508;15.080;2023-02-13T10:11:35;13.90;64.60
70107;DHT22;57473;37.508;15.080;2023-02-13T10:14:17;14.00;64.30
70107;DHT22;57473;37.508;15.080;2023-02-13T10:17:12;14.00;62.50
70107;DHT22;57473;37.508;15.080;2023-02-13T10:19:40;14.00;61.30
70107;DHT22;57473;37.508;15.080;2023-02-13T10:22:24;14.30;61.30
70107;DHT22;57473;37.508;15.080;2023-02-13T10:25:03;14.20;60.50
70107;DHT22;57473;37.508;15.080;2023-02-13T10:27:39;14.20;59.90
70107;DHT22;57473;37.508;15.080;2023-02-13T10:33:05;14.30;58.90
70107;DHT22;57473;37.508;15.080;2023-02-13T10:39:01;14.30;59.00
70107;DHT22;57473;37.508;15.080;2023-02-13T11:01:13;14.20;57.10
70107;DHT22;57473;37.508;15.080;2023-02-13T11:03:41;14.00;53.70
70107;DHT22;57473;37.508;15.080;2023-02-13T11:06:14;14.00;55.30
70107;DHT22;57473;37.508;15.080;2023-02-13T11:08:44;13.90;55.60
70107;DHT22;57473;37.508;15.080;2023-02-13T11:11:36;13.80;56.40
70107;DHT22;57473;37.508;15.080;2023-02-13T11:16:56;14.80;53.20
70107;DHT22;57473;37.508;15.080;2023-02-13T11:19:38;15.10;52.00
70107;DHT22;57473;37.508;15.080;2023-02-13T11:22:11;15.20;51.70
70107;DHT22;57473;37.508;15.080;2023-02-13T11:24:41;15.60;51.40
70107;DHT22;57473;37.508;15.080;2023-02-13T11:27:27;15.40;51.90
70107;DHT22;57473;37.508;15.080;2023-02-13T11:29:58;15.90;51.00
70107;DHT22;57473;37.508;15.080;2023-02-13T11:32:32;15.90;50.10
70107;DHT22;57473;37.508;15.080;2023-02-13T11:35:27;15.90;50.80
70107;DHT22;57473;37.508;15.080;2023-02-13T11:38:20;16.40;49.60
70107;DHT22;57473;37.508;15.080;2023-02-13T11:41:08;16.60;48.50
70107;DHT22;57473;37.508;15.080;2023-02-13T11:49:08;17.10;47.80
70107;DHT22;57473;37.508;15.080;2023-02-13T11:51:43;17.40;48.30
70107;DHT22;57473;37.508;15.080;2023-02-13T11:54:37;17.50;46.80
70107;DHT22;57473;37.508;15.080;2023-02-13T11:57:19;17.20;47.10
70107;DHT22;57473;37.508;15.080;2023-02-13T11:59:50;17.20;46.70
70107;DHT22;57473;37.508;15.080;2023-02-13T12:04:46;17.90;45.60
70107;DHT22;57473;37.508;15.080;2023-02-13T12:09:54;17.90;43.60
70107;DHT22;57473;37.508;15.080;2023-02-13T12:12:38;18.20;42.80
70107;DHT22;57473;37.508;15.080;2023-02-13T12:15:17;18.00;43.30
70107;DHT22;57473;37.508;15.080;2023-02-13T12:17:49;18.30;42.70
70107;DHT22;57473;37.508;15.080;2023-02-13T12:20:20;18.30;43.60
70107;DHT22;57473;37.508;15.080;2023-02-13T12:26:02;18.60;43.10
70107;DHT22;57473;37.508;15.080;2023-02-13T12:37:26;19.10;43.20
70107;DHT22;57473;37.508;15.080;2023-02-13T12:40:13;18.30;42.20
70107;DHT22;57473;37.508;15.080;2023-02-13T12:45:39;18.20;44.10
70107;DHT22;57473;37.508;15.080;2023-02-13T12:48:43;18.10;43.90
70107;DHT22;57473;37.508;15.080;2023-02-13T12:51:37;18.10;44.10
70107;DHT22;57473;37.508;15.080;2023-02-13T13:08:59;18.60;42.50
70107;DHT22;57473;37.508;15.080;2023-02-13T13:22:49;19.00;42.80
70107;DHT22;57473;37.508;15.080;2023-02-13T13:28:21;19.00;41.10
70107;DHT22;57473;37.508;15.080;2023-02-13T13:30:49;17.10;44.90
70107;DHT22;57473;37.508;15.080;2023-02-13T13:33:18;16.40;47.30
70107;DHT22;57473;37.508;15.080;2023-02-13T13:36:15;16.00;47.60
70107;DHT22;57473;37.508;15.080;2023-02-13T13:47:39;14.80;50.40
70107;DHT22;57473;37.508;15.080;2023-02-13T13:50:26;14.60;50.60
70107;DHT22;57473;37.508;15.080;2023-02-13T14:01:27;14.30;53.30
70107;DHT22;57473;37.508;15.080;2023-02-13T14:04:59;14.30;54.10
70107;DHT22;57473;37.508;15.080;2023-02-13T14:07:22;14.30;54.60
70107;DHT22;57473;37.508;15.080;2023-02-13T14:09:50;14.20;54.70
70107;DHT22;57473;37.508;15.080;2023-02-13T14:14:52;14.20;54.70
70107;DHT22;57473;37.508;15.080;2023-02-13T14:34:23;13.90;56.60
70107;DHT22;57473;37.508;15.080;2023-02-13T14:37:14;13.90;56.80
70107;DHT22;57473;37.508;15.080;2023-02-13T14:40:11;14.00;56.70
70107;DHT22;57473;37.508;15.080;2023-02-13T14:42:39;14.00;56.60
70107;DHT22;57473;37.508;15.080;2023-02-13T14:45:16;13.90;57.30
70107;DHT22;57473;37.508;15.080;2023-02-13T14:47:48;13.90;57.90
70107;DHT22;57473;37.508;15.080;2023-02-13T14:52:50;13.80;58.10
70107;DHT22;57473;37.508;15.080;2023-02-13T14:55:39;13.70;59.00
70107;DHT22;57473;37.508;15.080;2023-02-13T14:58:15;13.60;58.70
70107;DHT22;57473;37.508;15.080;2023-02-13T15:03:50;13.60;59.40
70107;DHT22;57473;37.508;15.080;2023-02-13T15:06:27;13.50;59.90
70107;DHT22;57473;37.508;15.080;2023-02-13T15:08:57;13.50;60.10
70107;DHT22;57473;37.508;15.080;2023-02-13T15:11:40;13.60;60.00
70107;DHT22;57473;37.508;15.080;2023-02-13T15:14:34;13.50;58.90
70107;DHT22;57473;37.508;15.080;2023-02-13T15:19:29;13.50;59.80
70107;DHT22;57473;37.508;15.080;2023-02-13T15:21:59;13.50;60.10
70107;DHT22;57473;37.508;15.080;2023-02-13T15:24:37;13.40;60.90
70107;DHT22;57473;37.508;15.080;2023-02-13T15:27:30;13.40;61.20
70107;DHT22;57473;37.508;15.080;2023-02-13T15:30:01;13.40;62.10
70107;DHT22;57473;37.508;15.080;2023-02-13T15:32:33;13.40;62.40
70107;DHT22;57473;37.508;15.080;2023-02-13T15:35:22;13.40;62.80
70107;DHT22;57473;37.508;15.080;2023-02-13T15:37:50;13.40;64.20
70107;DHT22;57473;37.508;15.080;2023-02-13T15:40:32;13.30;64.30
70107;DHT22;57473;37.508;15.080;2023-02-13T15:43:03;13.30;65.00
70107;DHT22;57473;37.508;15.080;2023-02-13T15:45:42;13.30;65.70
70107;DHT22;57473;37.508;15.080;2023-02-13T15:48:15;13.20;66.10
70107;DHT22;57473;37.508;15.080;2023-02-13T15:50:43;13.10;67.50
70107;DHT22;57473;37.508;15.080;2023-02-13T15:53:14;13.10;68.70
70107;DHT22;57473;37.508;15.080;2023-02-13T15:55:55;13.00;69.50
70107;DHT22;57473;37.508;15.080;2023-02-13T15:58:27;13.00;70.40
70107;DHT22;57473;37.508;15.080;2023-02-13T16:01:00;12.90;71.00
70107;DHT22;57473;37.508;15.080;2023-02-13T16:03:30;12.90;72.20
70107;DHT22;57473;37.508;15.080;2023-02-13T16:05:59;12.90;72.90
70107;DHT22;57473;37.508;15.080;2023-02-13T16:08:35;12.80;73.90
70107;DHT22;57473;37.508;15.080;2023-02-13T16:25:32;12.50;76.30
70107;DHT22;57473;37.508;15.080;2023-02-13T16:30:41;12.40;75.90
70107;DHT22;57473;37.508;15.080;2023-02-13T16:35:49;12.40;75.70
70107;DHT22;57473;37.508;15.080;2023-02-13T16:38:33;12.30;76.10
70107;DHT22;57473;37.508;15.080;2023-02-13T16:44:20;12.20;76.50
70107;DHT22;57473;37.508;15.080;2023-02-13T16:46:41;12.10;77.10
70107;DHT22;57473;37.508;15.080;2023-02-13T16:49:17;12.10;78.00
70107;DHT22;57473;37.508;15.080;2023-02-13T16:51:55;12.00;78.70
70107;DHT22;57473;37.508;15.080;2023-02-13T17:07:40;11.70;81.10
70107;DHT22;57473;37.508;15.080;2023-02-13T17:12:59;11.70;81.70
70107;DHT22;57473;37.508;15.080;2023-02-13T17:15:30;11.60;81.50
70107;DHT22;57473;37.508;15.080;2023-02-13T17:17:58;11.60;81.60
70107;DHT22;57473;37.508;15.080;2023-02-13T17:20:28;11.60;81.70
70107;DHT22;57473;37.508;15.080;2023-02-13T17:23:01;11.50;82.10
70107;DHT22;57473;37.508;15.080;2023-02-13T17:25:31;11.50;82.20
70107;DHT22;57473;37.508;15.080;2023-02-13T17:28:05;11.50;82.30
70107;DHT22;57473;37.508;15.080;2023-02-13T17:30:34;11.40;82.50
70107;DHT22;57473;37.508;15.080;2023-02-13T17:33:10;11.40;82.50
70107;DHT22;57473;37.508;15.080;2023-02-13T17:35:37;11.40;82.40
70107;DHT22;57473;37.508;15.080;2023-02-13T17:38:05;11.40;82.40
70107;DHT22;57473;37.508;15.080;2023-02-13T17:40:35;11.30;82.40
70107;DHT22;57473;37.508;15.080;2023-02-13T17:43:03;11.30;83.10
70107;DHT22;57473;37.508;15.080;2023-02-13T17:45:33;11.30;83.50
70107;DHT22;57473;37.508;15.080;2023-02-13T17:48:00;11.20;83.00
70107;DHT22;57473;37.508;15.080;2023-02-13T17:50:30;11.20;83.00
70107;DHT22;57473;37.508;15.080;2023-02-13T17:53:01;11.20;83.30
70107;DHT22;57473;37.508;15.080;2023-02-13T17:55:31;11.20;82.60
70107;DHT22;57473;37.508;15.080;2023-02-13T17:57:59;11.20;82.30
70107;DHT22;57473;37.508;15.080;2023-02-13T18:00:30;11.20;82.80
70107;DHT22;57473;37.508;15.080;2023-02-13T18:03:00;11.20;81.20
70107;DHT22;57473;37.508;15.080;2023-02-13T18:05:27;11.20;79.20
70107;DHT22;57473;37.508;15.080;2023-02-13T18:07:55;11.10;79.10
70107;DHT22;57473;37.508;15.080;2023-02-13T18:10:25;11.10;79.10
70107;DHT22;57473;37.508;15.080;2023-02-13T18:12:55;11.10;78.00
70107;DHT22;57473;37.508;15.080;2023-02-13T18:15:23;11.10;78.00
70107;DHT22;57473;37.508;15.080;2023-02-13T18:17:51;11.10;77.00
70107;DHT22;57473;37.508;15.080;2023-02-13T18:20:19;11.00;76.20
70107;DHT22;57473;37.508;15.080;2023-02-13T18:22:48;11.00;75.90
70107;DHT22;57473;37.508;15.080;2023-02-13T18:25:20;11.00;75.00
70107;DHT22;57473;37.508;15.080;2023-02-13T18:27:48;11.00;75.20
70107;DHT22;57473;37.508;15.080;2023-02-13T18:30:18;11.00;74.40
70107;DHT22;57473;37.508;15.080;2023-02-13T18:32:51;11.00;74.00
70107;DHT22;57473;37.508;15.080;2023-02-13T18:35:20;11.00;73.00
70107;DHT22;57473;37.508;15.080;2023-02-13T18:37:48;11.00;72.50
70107;DHT22;57473;37.508;15.080;2023-02-13T18:40:16;11.00;71.10
70107;DHT22;57473;37.508;15.080;2023-02-13T18:42:44;10.90;70.60
70107;DHT22;57473;37.508;15.080;2023-02-13T18:45:11;10.90;69.60
70107;DHT22;57473;37.508;15.080;2023-02-13T18:47:38;10.90;69.40
70107;DHT22;57473;37.508;15.080;2023-02-13T18:50:07;10.90;69.40
70107;DHT22;57473;37.508;15.080;2023-02-13T18:52:34;10.80;69.20
70107;DHT22;57473;37.508;15.080;2023-02-13T18:55:03;10.80;69.20
70107;DHT22;57473;37.508;15.080;2023-02-13T18:57:32;10.80;70.10
70107;DHT22;57473;37.508;15.080;2023-02-13T19:00:00;10.80;69.40
70107;DHT22;57473;37.508;15.080;2023-02-13T19:02:27;10.80;69.20
70107;DHT22;57473;37.508;15.080;2023-02-13T19:04:56;10.80;69.30
70107;DHT22;57473;37.508;15.080;2023-02-13T19:07:23;10.80;69.70
70107;DHT22;57473;37.508;15.080;2023-02-13T19:09:51;10.70;70.10
70107;DHT22;57473;37.508;15.080;2023-02-13T19:12:18;10.70;70.20
70107;DHT22;57473;37.508;15.080;2023-02-13T19:14:45;10.70;70.90
70107;DHT22;57473;37.508;15.080;2023-02-13T19:17:14;10.80;70.40
70107;DHT22;57473;37.508;15.080;2023-02-13T19:19:44;10.80;69.40
70107;DHT22;57473;37.508;15.080;2023-02-13T19:22:12;10.80;69.00
70107;DHT22;57473;37.508;15.080;2023-02-13T19:24:39;10.80;68.50